HomeShort term forecast

Short term forecast

Graphical weather forecast for the next 48 hours for Montreal:
Short term forecast
This weather forecast is automatically refreshed every 3 hours.

Hourly Experimental Forecast for the next 48 hours

Overall summary: Light snow throughout the day.

 Date & Hour   Temp   Feel   Baro   Hum   Speed & Bearing   Wind Gust   Precip.%   Precip.   Visibility   Cloud cover   Conditions 
 24/03/2019 - 22:00  0.2°C  -3.1°C  1016.5 hPa  63%  10.1 km/h   22.6 km/h  100%  0.25 mm/h  16.0km  97%  Light Snow 
 24/03/2019 - 23:00  -0.9°C  -4.7°C  1017.3 hPa  59%  11.4 km/h   21.5 km/h  100%  0.10 mm/h  16.1km  69%  Light Snow 
 25/03/2019 - 00:00  -2.3°C  -6.6°C  1018.0 hPa  57%  12.1 km/h   20.2 km/h  1%  0.06 mm/h  16.1km  42%  Partly Cloudy 
 25/03/2019 - 01:00  -3.7°C  -8.3°C  1018.5 hPa  54%  12.1 km/h   19.2 km/h  1%  0.05 mm/h  16.1km  30%  Partly Cloudy 
 25/03/2019 - 02:00  -4.9°C  -9.7°C  1019.0 hPa  53%  12.0 km/h   18.7 km/h  1%  0.05 mm/h  16.1km  19%  Clear 
 25/03/2019 - 03:00  -5.4°C  -10.4°C  1019.5 hPa  51%  12.1 km/h   19.4 km/h  1%  0.03 mm/h  16.1km  13%  Clear 
 25/03/2019 - 04:00  -5.6°C  -10.6°C  1020.1 hPa  50%  12.3 km/h   20.4 km/h  1%  0.04 mm/h  16.1km  6%  Clear 
 25/03/2019 - 05:00  -5.5°C  -10.3°C  1020.6 hPa  48%  11.6 km/h   19.0 km/h  0%  --  16.1km  0%  Clear 
 25/03/2019 - 06:00  -5.6°C  -10.7°C  1021.0 hPa  46%  12.4 km/h   19.2 km/h  1%  0.05 mm/h  16.1km  0%  Clear 
 25/03/2019 - 07:00  -5.8°C  -11.1°C  1021.4 hPa  45%  13.2 km/h   20.8 km/h  0%  --  16.1km  0%  Clear 
 25/03/2019 - 08:00  -6.0°C  -11.6°C  1021.6 hPa  46%  14.3 km/h   22.9 km/h  1%  0.03 mm/h  16.1km  0%  Clear 
 25/03/2019 - 09:00  -5.4°C  -10.9°C  1021.8 hPa  49%  14.4 km/h   24.1 km/h  0%  --  16.1km  0%  Clear 
 25/03/2019 - 10:00  -5.3°C  -11.4°C  1022.1 hPa  53%  17.0 km/h   27.0 km/h  3%  0.02 mm/h  16.1km  0%  Clear 
 25/03/2019 - 11:00  -4.3°C  -10.6°C  1021.9 hPa  53%  19.9 km/h   29.3 km/h  4%  0.01 mm/h  16.1km  0%  Clear 
 25/03/2019 - 12:00  -3.9°C  -10.5°C  1021.6 hPa  54%  21.7 km/h   31.3 km/h  0%  --  16.1km  4%  Clear 
 25/03/2019 - 13:00  -3.1°C  -9.7°C  1021.1 hPa  54%  23.6 km/h   33.3 km/h  0%  --  16.1km  9%  Clear 
 25/03/2019 - 14:00  -2.5°C  -9.1°C  1020.5 hPa  54%  25.4 km/h   35.2 km/h  0%  --  16.1km  15%  Clear 
 25/03/2019 - 15:00  -1.7°C  -8.3°C  1019.7 hPa  52%  26.8 km/h   37.2 km/h  0%  --  16.1km  29%  Partly Cloudy 
 25/03/2019 - 16:00  -1.1°C  -7.6°C  1018.9 hPa  51%  27.9 km/h   39.2 km/h  0%  --  16.1km  46%  Partly Cloudy 
 25/03/2019 - 17:00  -0.6°C  -7.0°C  1018.5 hPa  50%  27.6 km/h   40.3 km/h  8%  0.01 mm/h  16.1km  56%  Partly Cloudy 
 25/03/2019 - 18:00  -0.7°C  -6.8°C  1018.8 hPa  51%  24.4 km/h   40.1 km/h  5%  0.01 mm/h  16.1km  53%  Partly Cloudy 
 25/03/2019 - 19:00  -0.8°C  -6.3°C  1019.6 hPa  52%  20.1 km/h   38.9 km/h  3%  0.01 mm/h  16.1km  47%  Partly Cloudy 
 25/03/2019 - 20:00  -1.2°C  -6.2°C  1020.3 hPa  54%  16.9 km/h   37.8 km/h  2%  0.01 mm/h  16.1km  41%  Partly Cloudy 
 25/03/2019 - 21:00  -1.5°C  -6.4°C  1021.1 hPa  55%  15.8 km/h   37.1 km/h  1%  0.01 mm/h  16.1km  43%  Partly Cloudy 
 25/03/2019 - 22:00  -1.9°C  -6.9°C  1021.9 hPa  57%  15.7 km/h   36.5 km/h  1%  0.01 mm/h  16.1km  44%  Partly Cloudy 
 25/03/2019 - 23:00  -2.4°C  -7.5°C  1022.7 hPa  57%  15.8 km/h   35.9 km/h  1%  0.01 mm/h  15.2km  43%  Partly Cloudy 
 26/03/2019 - 00:00  -3.0°C  -8.3°C  1023.5 hPa  56%  15.6 km/h   35.6 km/h  1%  0.02 mm/h  16.1km  38%  Partly Cloudy 
 26/03/2019 - 01:00  -3.6°C  -8.9°C  1024.3 hPa  53%  15.5 km/h   35.5 km/h  1%  0.02 mm/h  16.1km  30%  Partly Cloudy 
 26/03/2019 - 02:00  -4.4°C  -9.8°C  1025.0 hPa  52%  15.0 km/h   34.2 km/h  1%  0.02 mm/h  16.1km  22%  Clear 
 26/03/2019 - 03:00  -5.0°C  -10.2°C  1025.6 hPa  52%  13.4 km/h   30.3 km/h  1%  0.01 mm/h  16.1km  14%  Clear 
 26/03/2019 - 04:00  -5.5°C  -10.3°C  1026.3 hPa  53%  11.5 km/h   25.2 km/h  1%  0.01 mm/h  16.1km  6%  Clear 
 26/03/2019 - 05:00  -6.0°C  -10.5°C  1026.9 hPa  54%  10.2 km/h   21.3 km/h  1%  0.01 mm/h  16.1km  0%  Clear 
 26/03/2019 - 06:00  -6.4°C  -11.0°C  1027.7 hPa  55%  10.1 km/h   19.5 km/h  1%  0.01 mm/h  16.1km  0%  Clear 
 26/03/2019 - 07:00  -6.6°C  -11.5°C  1028.6 hPa  55%  10.7 km/h   18.9 km/h  1%  0.01 mm/h  16.1km  0%  Clear 
 26/03/2019 - 08:00  -6.5°C  -11.5°C  1029.2 hPa  55%  11.8 km/h   18.8 km/h  1%  0.01 mm/h  16.1km  0%  Clear 
 26/03/2019 - 09:00  -5.8°C  -11.1°C  1029.7 hPa  53%  13.1 km/h   19.4 km/h  1%  0.01 mm/h  16.1km  0%  Clear 
 26/03/2019 - 10:00  -5.0°C  -10.7°C  1029.9 hPa  52%  15.3 km/h   20.7 km/h  2%  0.01 mm/h  16.1km  0%  Clear 
 26/03/2019 - 11:00  -4.2°C  -10.0°C  1030.0 hPa  51%  17.1 km/h   22.3 km/h  3%  0.01 mm/h  16.1km  0%  Clear 
 26/03/2019 - 12:00  -3.4°C  -9.2°C  1029.9 hPa  49%  18.2 km/h   24.5 km/h  0%  --  16.1km  3%  Clear 
 26/03/2019 - 13:00  -2.3°C  -8.1°C  1029.5 hPa  47%  19.5 km/h   27.0 km/h  0%  --  16.1km  7%  Clear 
 26/03/2019 - 14:00  -1.4°C  -7.1°C  1029.1 hPa  46%  20.8 km/h   28.9 km/h  0%  --  16.1km  9%  Clear 
 26/03/2019 - 15:00  -0.4°C  -5.8°C  1028.7 hPa  45%  21.1 km/h   29.5 km/h  0%  --  16.1km  7%  Clear 
 26/03/2019 - 16:00  0.5°C  -4.7°C  1028.2 hPa  44%  21.1 km/h   29.4 km/h  0%  --  16.1km  3%  Clear 
 26/03/2019 - 17:00  1.0°C  -4.0°C  1028.1 hPa  45%  20.5 km/h   29.6 km/h  0%  --  16.1km  0%  Clear 
 26/03/2019 - 18:00  0.7°C  -4.1°C  1028.4 hPa  47%  18.3 km/h   30.7 km/h  0%  --  16.1km  0%  Clear 
 26/03/2019 - 19:00  0.0°C  -4.4°C  1028.9 hPa  51%  15.2 km/h   32.0 km/h  0%  --  16.1km  0%  Clear 
 26/03/2019 - 20:00  -0.7°C  -4.8°C  1029.5 hPa  55%  12.6 km/h   32.4 km/h  0%  --  16.1km  0%  Clear 
 26/03/2019 - 21:00  -1.2°C  -5.0°C  1029.8 hPa  56%  11.2 km/h   31.3 km/h  0%  --  16.1km  0%  Clear 
Test

 

Past weather and reports

Past weatherFind in this section the past weather conditions, weather archive, graphics, reports and statistics.

Current conditions

Current weather condition for MontrealAll you need to know about the current weather conditions for Montreal. Weather data is updated every 10 minutes.

Weather forecast

Current Montreal weatherSince 2004, celinium.com website has provided accurate weather forecast for Montreal's island.